This is the latest recevied weather packets stored in our database for station/object CE2KVL-1. If no packets are shown the sender has not sent any weather packets the latest 10 day(s).
| Time | Temp. | Humidity | Pressure | Rain* | Wind** | Luminosity | Snow |
|---|---|---|---|---|---|---|---|
| 1778180885 | 14.44° C | 70% | 1027.6 hPa | - | - | - | - |
| 1778180585 | 14.44° C | 69% | 1028.1 hPa | - | - | - | - |
| 1778180285 | 15° C | 71% | 1027.7 hPa | - | - | - | - |
| 1778179985 | 15° C | 71% | 1027.5 hPa | - | - | - | - |
| 1778179685 | 14.44° C | 70% | 1027.9 hPa | - | - | - | - |
| 1778179385 | 15° C | 70% | 1027.9 hPa | - | - | - | - |
| 1778179085 | 15° C | 71% | 1027.4 hPa | - | - | - | - |
| 1778178785 | 15° C | 73% | 1027.6 hPa | - | - | - | - |
| 1778178485 | 15° C | 74% | 1027.7 hPa | - | - | - | - |
| 1778178185 | 15° C | 75% | 1027.6 hPa | - | - | - | - |
| 1778177885 | 14.44° C | 74% | 1027.7 hPa | - | - | - | - |
| 1778177585 | 14.44° C | 76% | 1027.6 hPa | - | - | - | - |
| 1778177285 | 14.44° C | 76% | 1028.4 hPa | - | - | - | - |
| 1778176985 | 14.44° C | 77% | 1027.9 hPa | - | - | - | - |
| 1778176685 | 14.44° C | 78% | 1027.5 hPa | - | - | - | - |
| 1778176385 | 13.89° C | 77% | 1029.4 hPa | - | - | - | - |
| 1778176085 | 14.44° C | 78% | 1028.3 hPa | - | - | - | - |
| 1778175785 | 14.44° C | 78% | 1028.9 hPa | - | - | - | - |
| 1778175485 | 14.44° C | 77% | 1028.9 hPa | - | - | - | - |
| 1778175185 | 14.44° C | 80% | 1029.1 hPa | - | - | - | - |
| 1778174885 | 14.44° C | 80% | 1029.5 hPa | - | - | - | - |
| 1778174585 | 14.44° C | 84% | 1028.6 hPa | - | - | - | - |
| 1778174285 | 13.89° C | 83% | 1029.1 hPa | - | - | - | - |
| 1778173985 | 13.89° C | 83% | 1030.2 hPa | - | - | - | - |
| 1778173685 | 13.89° C | 83% | 1029.3 hPa | - | - | - | - |
* Rain since midnight (hover to see other rain measurements)
** Current wind speed in m/s (hover to see current wind gust speed)